ガーンジー島 の空港の天気 - METARとTAF

ガーンジー空港 ( EGJB / GCI ) - ガーンジー島 ガーンジー島
飛行場実況気象(Metar)
観測時間02/05 20:20 GMT (02/05 20:20 UTC)
風向・風速東 5m/s
視程10km以上
天気現象
少しの雲 雲底高度 520m
気温5℃
湿度81%
気圧1044hPa
METAREGJB 052020Z 09010KT 9999 FEW017 05/02 Q1044
過去の天気等 Google飛行場航空写真 Wunderground天気予報

過去48時間のMETAR

飛行場予報(TAF)
発表時間: 2/05 16:58 GMT (2/05 16:58 UTC)
予報対象時間: 5日18時 GMT ~ 6日3時 GMT
風向・風速東北東 5m/s
視程10km以上
少しの雲 雲底高度 430m
TAF AMD EGJB 051658Z 0518/0603 06010KT 9999 FEW014